Terminal Aerodrome Forecast
Issued by NWS Cleveland, OH

Home | Current Version | Previous Version | Graphics & Text | Print | Product List | Glossary Off
Versions: 1 2 3 4 5 6 7 8 9 10 11 12 13 14 15 16 17 18 19 20 21 22 23

370
FTUS41 KCLE 171346 AAA
TAFMFD
TAF AMD
KMFD 171346Z 1714/1812 18012G22KT P6SM VCSH OVC005
      TEMPO 1714/1717 BKN015
     FM171700 24014G22KT 5SM BR BKN012
     FM180000 26009KT 5SM BR VCSH OVC005=

USA.gov is the U.S. government's official web portal to all federal, state and local government web resources and services.